KPRO/PRO METAR and TAF weather

Enter ICAO airport designator
Station Type Date Time Source
KPRO METAR 2020/11/27 03:15 UTC NOAA

KPRO 270315Z AUTO 00000KT 7SM CLR 00/00 A3009 RMK AO2 T00011005


Station Type Date Time Source
KPRO Decoded METAR 2020/11/27 03:15 UTC NOAA

Station name not available
Nov 26, 2020 - 10:15 PM EST / 2020.11.27 0315 UTC
Wind: Calm:0
Visibility: 7 mile(s):0
Sky conditions: clear
Temperature: 32.2 F (0.1 C)
Dew Point: 31.1 F (-0.5 C)
Relative Humidity: 95%
Pressure (altimeter): 30.09 in. Hg (1018 hPa)
ob: KPRO 270315Z AUTO 00000KT 7SM CLR 00/00 A3009 RMK AO2 T00011005
cycle: 3

Station Type Date Time Source
KPRO TAF UTC NOAA

Error!

Example: see airport list